sensor_id;sensor_type;location;lat;lon;timestamp;P1;durP1;ratioP1;P2;durP2;ratioP2
41709;SDS011;59402;48.396;-4.472;2022-09-21T00:00:48;13.52;;;9.30;;
41709;SDS011;59402;48.396;-4.472;2022-09-21T00:03:14;10.88;;;8.82;;
41709;SDS011;59402;48.396;-4.472;2022-09-21T00:05:40;13.00;;;9.48;;
41709;SDS011;59402;48.396;-4.472;2022-09-21T00:08:06;12.90;;;9.30;;
41709;SDS011;59402;48.396;-4.472;2022-09-21T00:10:32;12.55;;;8.90;;
41709;SDS011;59402;48.396;-4.472;2022-09-21T00:12:59;12.95;;;8.50;;
41709;SDS011;59402;48.396;-4.472;2022-09-21T00:15:27;11.50;;;7.72;;
41709;SDS011;59402;48.396;-4.472;2022-09-21T00:17:54;10.55;;;8.18;;
41709;SDS011;59402;48.396;-4.472;2022-09-21T00:20:21;9.77;;;7.65;;
41709;SDS011;59402;48.396;-4.472;2022-09-21T00:22:48;10.57;;;7.72;;
41709;SDS011;59402;48.396;-4.472;2022-09-21T00:25:13;10.88;;;7.63;;
41709;SDS011;59402;48.396;-4.472;2022-09-21T00:27:39;11.13;;;6.97;;
41709;SDS011;59402;48.396;-4.472;2022-09-21T00:30:05;8.13;;;6.15;;
41709;SDS011;59402;48.396;-4.472;2022-09-21T00:32:32;9.35;;;6.88;;
41709;SDS011;59402;48.396;-4.472;2022-09-21T00:35:01;8.82;;;6.53;;
41709;SDS011;59402;48.396;-4.472;2022-09-21T00:37:27;10.13;;;6.40;;
41709;SDS011;59402;48.396;-4.472;2022-09-21T00:39:53;11.55;;;5.75;;
41709;SDS011;59402;48.396;-4.472;2022-09-21T00:42:23;8.60;;;6.47;;
41709;SDS011;59402;48.396;-4.472;2022-09-21T00:44:56;8.73;;;5.53;;
41709;SDS011;59402;48.396;-4.472;2022-09-21T00:47:26;7.28;;;5.82;;
41709;SDS011;59402;48.396;-4.472;2022-09-21T00:49:57;8.55;;;5.70;;
41709;SDS011;59402;48.396;-4.472;2022-09-21T00:52:25;8.52;;;6.25;;
41709;SDS011;59402;48.396;-4.472;2022-09-21T00:55:14;9.00;;;6.05;;
41709;SDS011;59402;48.396;-4.472;2022-09-21T00:57:45;8.27;;;5.85;;
41709;SDS011;59402;48.396;-4.472;2022-09-21T01:00:15;9.25;;;5.18;;
41709;SDS011;59402;48.396;-4.472;2022-09-21T01:02:40;9.55;;;5.50;;
41709;SDS011;59402;48.396;-4.472;2022-09-21T01:05:07;7.93;;;5.10;;
41709;SDS011;59402;48.396;-4.472;2022-09-21T01:07:35;8.73;;;5.10;;
41709;SDS011;59402;48.396;-4.472;2022-09-21T01:10:09;6.80;;;4.43;;
41709;SDS011;59402;48.396;-4.472;2022-09-21T01:21:15;9.00;;;5.32;;
41709;SDS011;59402;48.396;-4.472;2022-09-21T01:29:59;8.13;;;5.00;;
41709;SDS011;59402;48.396;-4.472;2022-09-21T01:32:40;11.85;;;4.80;;
41709;SDS011;59402;48.396;-4.472;2022-09-21T01:35:16;6.30;;;4.18;;
41709;SDS011;59402;48.396;-4.472;2022-09-21T01:40:24;7.75;;;4.00;;
41709;SDS011;59402;48.396;-4.472;2022-09-21T01:42:56;7.85;;;3.90;;
41709;SDS011;59402;48.396;-4.472;2022-09-21T01:45:26;6.38;;;3.60;;
41709;SDS011;59402;48.396;-4.472;2022-09-21T01:47:59;7.03;;;3.85;;
41709;SDS011;59402;48.396;-4.472;2022-09-21T01:50:26;6.38;;;3.92;;
41709;SDS011;59402;48.396;-4.472;2022-09-21T01:53:05;5.68;;;3.53;;
41709;SDS011;59402;48.396;-4.472;2022-09-21T01:55:35;5.85;;;3.40;;
41709;SDS011;59402;48.396;-4.472;2022-09-21T01:58:20;7.18;;;3.33;;
41709;SDS011;59402;48.396;-4.472;2022-09-21T02:00:53;10.43;;;3.33;;
41709;SDS011;59402;48.396;-4.472;2022-09-21T02:03:23;5.13;;;3.35;;
41709;SDS011;59402;48.396;-4.472;2022-09-21T02:05:55;7.63;;;3.50;;
41709;SDS011;59402;48.396;-4.472;2022-09-21T02:08:22;6.00;;;3.47;;
41709;SDS011;59402;48.396;-4.472;2022-09-21T02:10:51;5.82;;;3.45;;
41709;SDS011;59402;48.396;-4.472;2022-09-21T02:13:17;5.57;;;3.80;;
41709;SDS011;59402;48.396;-4.472;2022-09-21T02:18:42;5.57;;;3.67;;
41709;SDS011;59402;48.396;-4.472;2022-09-21T02:21:12;5.55;;;3.47;;
41709;SDS011;59402;48.396;-4.472;2022-09-21T02:23:58;5.30;;;3.50;;
41709;SDS011;59402;48.396;-4.472;2022-09-21T02:26:33;7.88;;;3.42;;
41709;SDS011;59402;48.396;-4.472;2022-09-21T02:34:52;6.22;;;3.25;;
41709;SDS011;59402;48.396;-4.472;2022-09-21T02:37:28;5.65;;;3.55;;
41709;SDS011;59402;48.396;-4.472;2022-09-21T02:40:24;6.13;;;3.47;;
41709;SDS011;59402;48.396;-4.472;2022-09-21T02:43:11;5.90;;;3.88;;
41709;SDS011;59402;48.396;-4.472;2022-09-21T02:45:47;9.45;;;3.88;;
41709;SDS011;59402;48.396;-4.472;2022-09-21T02:48:17;7.32;;;3.95;;
41709;SDS011;59402;48.396;-4.472;2022-09-21T02:50:51;9.18;;;4.30;;
41709;SDS011;59402;48.396;-4.472;2022-09-21T02:53:24;8.25;;;4.15;;
41709;SDS011;59402;48.396;-4.472;2022-09-21T02:55:54;6.65;;;3.95;;
41709;SDS011;59402;48.396;-4.472;2022-09-21T02:58:23;8.48;;;4.60;;
41709;SDS011;59402;48.396;-4.472;2022-09-21T03:00:51;6.07;;;4.20;;
41709;SDS011;59402;48.396;-4.472;2022-09-21T03:03:19;7.18;;;4.60;;
41709;SDS011;59402;48.396;-4.472;2022-09-21T03:05:47;7.15;;;4.25;;
41709;SDS011;59402;48.396;-4.472;2022-09-21T03:10:41;5.40;;;3.67;;
41709;SDS011;59402;48.396;-4.472;2022-09-21T03:13:07;6.05;;;4.43;;
41709;SDS011;59402;48.396;-4.472;2022-09-21T03:15:36;5.38;;;4.10;;
41709;SDS011;59402;48.396;-4.472;2022-09-21T03:18:03;7.20;;;4.47;;
41709;SDS011;59402;48.396;-4.472;2022-09-21T03:20:32;5.70;;;3.97;;
41709;SDS011;59402;48.396;-4.472;2022-09-21T03:22:58;8.82;;;4.35;;
41709;SDS011;59402;48.396;-4.472;2022-09-21T03:25:24;9.05;;;4.50;;
41709;SDS011;59402;48.396;-4.472;2022-09-21T03:27:50;8.27;;;4.63;;
41709;SDS011;59402;48.396;-4.472;2022-09-21T03:30:19;7.07;;;4.68;;
41709;SDS011;59402;48.396;-4.472;2022-09-21T03:32:49;6.63;;;4.73;;
41709;SDS011;59402;48.396;-4.472;2022-09-21T03:35:18;9.43;;;5.03;;
41709;SDS011;59402;48.396;-4.472;2022-09-21T03:37:45;5.55;;;4.03;;
41709;SDS011;59402;48.396;-4.472;2022-09-21T03:40:10;8.10;;;4.50;;
41709;SDS011;59402;48.396;-4.472;2022-09-21T03:42:37;6.47;;;4.43;;
41709;SDS011;59402;48.396;-4.472;2022-09-21T03:45:04;5.53;;;3.70;;
41709;SDS011;59402;48.396;-4.472;2022-09-21T03:47:30;9.10;;;4.28;;
41709;SDS011;59402;48.396;-4.472;2022-09-21T03:49:55;9.00;;;4.05;;
41709;SDS011;59402;48.396;-4.472;2022-09-21T03:52:21;8.43;;;4.60;;
41709;SDS011;59402;48.396;-4.472;2022-09-21T03:54:47;6.93;;;4.50;;
41709;SDS011;59402;48.396;-4.472;2022-09-21T03:57:12;5.85;;;4.10;;
41709;SDS011;59402;48.396;-4.472;2022-09-21T03:59:37;7.50;;;3.80;;
41709;SDS011;59402;48.396;-4.472;2022-09-21T04:02:03;5.68;;;3.80;;
41709;SDS011;59402;48.396;-4.472;2022-09-21T04:04:28;7.00;;;4.50;;
41709;SDS011;59402;48.396;-4.472;2022-09-21T04:06:54;6.22;;;4.30;;
41709;SDS011;59402;48.396;-4.472;2022-09-21T04:09:19;7.32;;;3.95;;
41709;SDS011;59402;48.396;-4.472;2022-09-21T04:11:45;9.68;;;4.25;;
41709;SDS011;59402;48.396;-4.472;2022-09-21T04:14:10;6.97;;;4.28;;
41709;SDS011;59402;48.396;-4.472;2022-09-21T04:16:36;6.45;;;4.68;;
41709;SDS011;59402;48.396;-4.472;2022-09-21T04:19:02;8.85;;;4.65;;
41709;SDS011;59402;48.396;-4.472;2022-09-21T04:21:27;6.72;;;4.93;;
41709;SDS011;59402;48.396;-4.472;2022-09-21T04:23:54;8.90;;;5.47;;
41709;SDS011;59402;48.396;-4.472;2022-09-21T04:26:21;9.00;;;5.13;;
41709;SDS011;59402;48.396;-4.472;2022-09-21T04:28:48;10.75;;;5.30;;
41709;SDS011;59402;48.396;-4.472;2022-09-21T04:31:15;7.32;;;4.78;;
41709;SDS011;59402;48.396;-4.472;2022-09-21T04:33:40;7.10;;;4.80;;
41709;SDS011;59402;48.396;-4.472;2022-09-21T04:36:06;8.15;;;5.05;;
41709;SDS011;59402;48.396;-4.472;2022-09-21T04:38:31;10.43;;;5.05;;
41709;SDS011;59402;48.396;-4.472;2022-09-21T04:40:57;7.78;;;5.70;;
41709;SDS011;59402;48.396;-4.472;2022-09-21T04:43:22;7.50;;;5.47;;
41709;SDS011;59402;48.396;-4.472;2022-09-21T04:45:48;8.63;;;4.95;;
41709;SDS011;59402;48.396;-4.472;2022-09-21T04:48:14;9.00;;;4.95;;
41709;SDS011;59402;48.396;-4.472;2022-09-21T04:50:39;8.20;;;5.13;;
41709;SDS011;59402;48.396;-4.472;2022-09-21T04:53:06;11.30;;;6.82;;
41709;SDS011;59402;48.396;-4.472;2022-09-21T04:55:32;9.70;;;5.95;;
41709;SDS011;59402;48.396;-4.472;2022-09-21T04:57:57;7.97;;;6.00;;
41709;SDS011;59402;48.396;-4.472;2022-09-21T05:00:23;8.30;;;6.30;;
41709;SDS011;59402;48.396;-4.472;2022-09-21T05:02:48;10.45;;;6.30;;
41709;SDS011;59402;48.396;-4.472;2022-09-21T05:05:13;7.68;;;5.57;;
41709;SDS011;59402;48.396;-4.472;2022-09-21T05:07:39;10.20;;;5.50;;
41709;SDS011;59402;48.396;-4.472;2022-09-21T05:10:04;12.05;;;5.85;;
41709;SDS011;59402;48.396;-4.472;2022-09-21T05:12:31;9.55;;;5.68;;
41709;SDS011;59402;48.396;-4.472;2022-09-21T05:14:57;8.20;;;5.15;;
41709;SDS011;59402;48.396;-4.472;2022-09-21T05:17:23;10.65;;;5.47;;
41709;SDS011;59402;48.396;-4.472;2022-09-21T05:19:49;7.88;;;5.63;;
41709;SDS011;59402;48.396;-4.472;2022-09-21T05:22:15;8.95;;;5.45;;
41709;SDS011;59402;48.396;-4.472;2022-09-21T05:24:41;7.65;;;5.60;;
41709;SDS011;59402;48.396;-4.472;2022-09-21T05:27:06;9.05;;;5.72;;
41709;SDS011;59402;48.396;-4.472;2022-09-21T05:29:32;8.07;;;5.40;;
41709;SDS011;59402;48.396;-4.472;2022-09-21T05:32:04;11.30;;;5.53;;
41709;SDS011;59402;48.396;-4.472;2022-09-21T05:35:12;6.55;;;4.80;;
41709;SDS011;59402;48.396;-4.472;2022-09-21T05:38:03;7.28;;;4.50;;
41709;SDS011;59402;48.396;-4.472;2022-09-21T05:40:42;8.60;;;4.72;;
41709;SDS011;59402;48.396;-4.472;2022-09-21T05:43:08;5.78;;;3.90;;
41709;SDS011;59402;48.396;-4.472;2022-09-21T05:45:36;9.20;;;4.47;;
41709;SDS011;59402;48.396;-4.472;2022-09-21T05:48:14;7.18;;;3.95;;
41709;SDS011;59402;48.396;-4.472;2022-09-21T05:50:52;6.93;;;4.00;;
41709;SDS011;59402;48.396;-4.472;2022-09-21T05:55:58;7.85;;;4.00;;
41709;SDS011;59402;48.396;-4.472;2022-09-21T06:03:52;6.85;;;3.50;;
41709;SDS011;59402;48.396;-4.472;2022-09-21T06:06:19;5.82;;;3.38;;
41709;SDS011;59402;48.396;-4.472;2022-09-21T06:08:45;12.53;;;3.47;;
41709;SDS011;59402;48.396;-4.472;2022-09-21T06:11:11;9.75;;;3.50;;
41709;SDS011;59402;48.396;-4.472;2022-09-21T06:13:37;10.18;;;3.50;;
41709;SDS011;59402;48.396;-4.472;2022-09-21T06:16:03;5.93;;;3.15;;
41709;SDS011;59402;48.396;-4.472;2022-09-21T06:18:29;7.20;;;3.42;;
41709;SDS011;59402;48.396;-4.472;2022-09-21T06:20:54;7.00;;;2.85;;
41709;SDS011;59402;48.396;-4.472;2022-09-21T06:23:20;5.25;;;2.33;;
41709;SDS011;59402;48.396;-4.472;2022-09-21T06:25:51;5.28;;;2.70;;
41709;SDS011;59402;48.396;-4.472;2022-09-21T06:28:17;6.75;;;2.75;;
41709;SDS011;59402;48.396;-4.472;2022-09-21T06:30:42;5.70;;;2.53;;
41709;SDS011;59402;48.396;-4.472;2022-09-21T06:33:09;6.68;;;2.50;;
41709;SDS011;59402;48.396;-4.472;2022-09-21T06:35:35;6.05;;;2.20;;
41709;SDS011;59402;48.396;-4.472;2022-09-21T06:38:02;6.10;;;2.20;;
41709;SDS011;59402;48.396;-4.472;2022-09-21T06:40:29;5.22;;;2.00;;
41709;SDS011;59402;48.396;-4.472;2022-09-21T06:42:57;5.90;;;2.35;;
41709;SDS011;59402;48.396;-4.472;2022-09-21T06:45:24;5.27;;;2.20;;
41709;SDS011;59402;48.396;-4.472;2022-09-21T06:47:50;6.65;;;2.05;;
41709;SDS011;59402;48.396;-4.472;2022-09-21T06:50:15;4.25;;;2.13;;
41709;SDS011;59402;48.396;-4.472;2022-09-21T06:52:41;4.85;;;2.67;;
41709;SDS011;59402;48.396;-4.472;2022-09-21T06:55:07;8.38;;;2.30;;
41709;SDS011;59402;48.396;-4.472;2022-09-21T06:57:34;6.38;;;2.60;;
41709;SDS011;59402;48.396;-4.472;2022-09-21T07:00:00;6.07;;;2.40;;
41709;SDS011;59402;48.396;-4.472;2022-09-21T07:02:26;5.03;;;2.65;;
41709;SDS011;59402;48.396;-4.472;2022-09-21T07:04:52;6.13;;;2.38;;
41709;SDS011;59402;48.396;-4.472;2022-09-21T07:07:17;4.57;;;2.00;;
41709;SDS011;59402;48.396;-4.472;2022-09-21T07:09:43;7.18;;;1.83;;
41709;SDS011;59402;48.396;-4.472;2022-09-21T07:12:08;6.07;;;1.50;;
41709;SDS011;59402;48.396;-4.472;2022-09-21T07:14:33;9.25;;;1.70;;
41709;SDS011;59402;48.396;-4.472;2022-09-21T07:16:59;4.03;;;1.50;;
41709;SDS011;59402;48.396;-4.472;2022-09-21T07:19:24;5.90;;;1.70;;
41709;SDS011;59402;48.396;-4.472;2022-09-21T07:21:53;4.05;;;1.45;;
41709;SDS011;59402;48.396;-4.472;2022-09-21T07:24:19;3.30;;;1.20;;
41709;SDS011;59402;48.396;-4.472;2022-09-21T07:26:45;8.30;;;1.77;;
41709;SDS011;59402;48.396;-4.472;2022-09-21T07:29:10;8.55;;;1.80;;
41709;SDS011;59402;48.396;-4.472;2022-09-21T07:31:36;6.80;;;1.55;;
41709;SDS011;59402;48.396;-4.472;2022-09-21T07:34:01;5.00;;;1.60;;
41709;SDS011;59402;48.396;-4.472;2022-09-21T07:36:27;5.63;;;1.52;;
41709;SDS011;59402;48.396;-4.472;2022-09-21T07:38:52;4.28;;;1.50;;
41709;SDS011;59402;48.396;-4.472;2022-09-21T07:41:18;6.28;;;1.52;;
41709;SDS011;59402;48.396;-4.472;2022-09-21T07:43:44;3.28;;;1.33;;
41709;SDS011;59402;48.396;-4.472;2022-09-21T07:46:10;4.70;;;1.40;;
41709;SDS011;59402;48.396;-4.472;2022-09-21T07:51:03;4.82;;;1.13;;
41709;SDS011;59402;48.396;-4.472;2022-09-21T07:53:31;5.15;;;1.70;;
41709;SDS011;59402;48.396;-4.472;2022-09-21T07:56:04;5.40;;;1.15;;
41709;SDS011;59402;48.396;-4.472;2022-09-21T07:58:34;5.05;;;1.20;;
41709;SDS011;59402;48.396;-4.472;2022-09-21T08:01:19;5.45;;;1.23;;
41709;SDS011;59402;48.396;-4.472;2022-09-21T08:03:47;3.75;;;1.20;;
41709;SDS011;59402;48.396;-4.472;2022-09-21T08:06:13;5.70;;;1.00;;
41709;SDS011;59402;48.396;-4.472;2022-09-21T08:08:38;6.40;;;1.45;;
41709;SDS011;59402;48.396;-4.472;2022-09-21T08:11:06;6.95;;;1.67;;
41709;SDS011;59402;48.396;-4.472;2022-09-21T08:13:32;4.97;;;1.45;;
41709;SDS011;59402;48.396;-4.472;2022-09-21T08:15:58;5.15;;;1.92;;
41709;SDS011;59402;48.396;-4.472;2022-09-21T08:18:24;5.80;;;1.50;;
41709;SDS011;59402;48.396;-4.472;2022-09-21T08:20:58;3.25;;;1.10;;
41709;SDS011;59402;48.396;-4.472;2022-09-21T08:23:25;9.38;;;1.25;;
41709;SDS011;59402;48.396;-4.472;2022-09-21T08:26:03;5.25;;;1.17;;
41709;SDS011;59402;48.396;-4.472;2022-09-21T08:28:31;4.40;;;1.15;;
41709;SDS011;59402;48.396;-4.472;2022-09-21T08:31:00;5.28;;;1.30;;
41709;SDS011;59402;48.396;-4.472;2022-09-21T08:33:26;7.38;;;1.20;;
41709;SDS011;59402;48.396;-4.472;2022-09-21T08:35:55;4.85;;;1.02;;
41709;SDS011;59402;48.396;-4.472;2022-09-21T08:38:22;4.25;;;1.15;;
41709;SDS011;59402;48.396;-4.472;2022-09-21T08:40:48;4.05;;;1.23;;
41709;SDS011;59402;48.396;-4.472;2022-09-21T08:43:17;4.53;;;1.00;;
41709;SDS011;59402;48.396;-4.472;2022-09-21T08:45:49;4.82;;;1.20;;
41709;SDS011;59402;48.396;-4.472;2022-09-21T08:48:19;7.53;;;1.30;;
41709;SDS011;59402;48.396;-4.472;2022-09-21T08:50:51;3.60;;;0.98;;
41709;SDS011;59402;48.396;-4.472;2022-09-21T08:55:49;4.55;;;1.05;;
41709;SDS011;59402;48.396;-4.472;2022-09-21T08:58:19;4.65;;;1.10;;
41709;SDS011;59402;48.396;-4.472;2022-09-21T09:00:56;3.00;;;1.00;;
41709;SDS011;59402;48.396;-4.472;2022-09-21T09:06:23;3.60;;;0.90;;
41709;SDS011;59402;48.396;-4.472;2022-09-21T09:11:30;4.43;;;1.10;;
41709;SDS011;59402;48.396;-4.472;2022-09-21T09:19:42;3.72;;;1.00;;
41709;SDS011;59402;48.396;-4.472;2022-09-21T09:22:18;6.82;;;1.15;;
41709;SDS011;59402;48.396;-4.472;2022-09-21T09:24:51;3.83;;;0.90;;
41709;SDS011;59402;48.396;-4.472;2022-09-21T09:32:59;5.70;;;1.25;;
41709;SDS011;59402;48.396;-4.472;2022-09-21T09:38:04;3.95;;;0.70;;
41709;SDS011;59402;48.396;-4.472;2022-09-21T09:43:09;3.10;;;0.80;;
41709;SDS011;59402;48.396;-4.472;2022-09-21T09:46:10;7.10;;;1.10;;
41709;SDS011;59402;48.396;-4.472;2022-09-21T09:51:31;5.68;;;0.90;;
41709;SDS011;59402;48.396;-4.472;2022-09-21T09:54:01;4.35;;;1.40;;
41709;SDS011;59402;48.396;-4.472;2022-09-21T09:56:29;6.05;;;1.00;;
41709;SDS011;59402;48.396;-4.472;2022-09-21T09:58:56;3.65;;;1.00;;
41709;SDS011;59402;48.396;-4.472;2022-09-21T10:04:22;4.97;;;1.00;;
41709;SDS011;59402;48.396;-4.472;2022-09-21T10:06:47;3.80;;;1.00;;
41709;SDS011;59402;48.396;-4.472;2022-09-21T10:09:26;2.75;;;0.95;;
41709;SDS011;59402;48.396;-4.472;2022-09-21T10:12:12;7.38;;;1.10;;
41709;SDS011;59402;48.396;-4.472;2022-09-21T10:14:50;3.80;;;1.10;;
41709;SDS011;59402;48.396;-4.472;2022-09-21T10:17:17;5.20;;;1.10;;
41709;SDS011;59402;48.396;-4.472;2022-09-21T10:19:43;4.90;;;1.20;;
41709;SDS011;59402;48.396;-4.472;2022-09-21T10:22:17;5.82;;;0.82;;
41709;SDS011;59402;48.396;-4.472;2022-09-21T10:24:48;4.00;;;0.90;;
41709;SDS011;59402;48.396;-4.472;2022-09-21T10:27:19;4.57;;;0.90;;
41709;SDS011;59402;48.396;-4.472;2022-09-21T10:29:48;6.47;;;1.08;;
41709;SDS011;59402;48.396;-4.472;2022-09-21T10:39:54;2.75;;;0.75;;
41709;SDS011;59402;48.396;-4.472;2022-09-21T10:42:21;3.55;;;1.00;;
41709;SDS011;59402;48.396;-4.472;2022-09-21T10:44:51;7.05;;;1.00;;
41709;SDS011;59402;48.396;-4.472;2022-09-21T10:47:19;6.53;;;1.23;;
41709;SDS011;59402;48.396;-4.472;2022-09-21T10:49:52;4.28;;;1.25;;
41709;SDS011;59402;48.396;-4.472;2022-09-21T10:52:20;3.30;;;0.90;;
41709;SDS011;59402;48.396;-4.472;2022-09-21T10:54:48;4.07;;;0.95;;
41709;SDS011;59402;48.396;-4.472;2022-09-21T10:57:17;3.63;;;1.00;;
41709;SDS011;59402;48.396;-4.472;2022-09-21T10:59:49;3.42;;;1.00;;
41709;SDS011;59402;48.396;-4.472;2022-09-21T11:02:26;6.65;;;0.85;;
41709;SDS011;59402;48.396;-4.472;2022-09-21T11:04:56;2.92;;;0.90;;
41709;SDS011;59402;48.396;-4.472;2022-09-21T11:07:28;6.28;;;0.98;;
41709;SDS011;59402;48.396;-4.472;2022-09-21T11:28:43;3.80;;;0.93;;
41709;SDS011;59402;48.396;-4.472;2022-09-21T11:31:19;4.20;;;1.13;;
41709;SDS011;59402;48.396;-4.472;2022-09-21T11:39:21;3.00;;;1.07;;
41709;SDS011;59402;48.396;-4.472;2022-09-21T11:45:02;7.53;;;1.08;;
41709;SDS011;59402;48.396;-4.472;2022-09-21T11:50:39;3.88;;;0.90;;
41709;SDS011;59402;48.396;-4.472;2022-09-21T11:53:33;3.42;;;0.85;;
41709;SDS011;59402;48.396;-4.472;2022-09-21T12:12:42;6.38;;;1.23;;
41709;SDS011;59402;48.396;-4.472;2022-09-21T12:15:18;3.95;;;0.98;;
41709;SDS011;59402;48.396;-4.472;2022-09-21T12:17:59;3.13;;;1.20;;
41709;SDS011;59402;48.396;-4.472;2022-09-21T12:20:33;4.57;;;1.40;;
41709;SDS011;59402;48.396;-4.472;2022-09-21T12:26:05;5.50;;;1.27;;
41709;SDS011;59402;48.396;-4.472;2022-09-21T12:28:35;5.20;;;1.13;;
41709;SDS011;59402;48.396;-4.472;2022-09-21T12:31:09;8.88;;;1.50;;
41709;SDS011;59402;48.396;-4.472;2022-09-21T12:33:44;5.78;;;1.20;;
41709;SDS011;59402;48.396;-4.472;2022-09-21T12:38:52;4.55;;;1.27;;
41709;SDS011;59402;48.396;-4.472;2022-09-21T12:41:27;2.67;;;1.00;;
41709;SDS011;59402;48.396;-4.472;2022-09-21T12:47:09;4.22;;;1.10;;
41709;SDS011;59402;48.396;-4.472;2022-09-21T12:49:37;8.02;;;1.17;;
41709;SDS011;59402;48.396;-4.472;2022-09-21T12:52:09;5.72;;;1.27;;
41709;SDS011;59402;48.396;-4.472;2022-09-21T13:00:29;5.65;;;1.15;;
41709;SDS011;59402;48.396;-4.472;2022-09-21T13:03:05;2.83;;;1.13;;
41709;SDS011;59402;48.396;-4.472;2022-09-21T13:05:45;5.28;;;1.40;;
41709;SDS011;59402;48.396;-4.472;2022-09-21T13:08:23;5.63;;;1.63;;
41709;SDS011;59402;48.396;-4.472;2022-09-21T13:11:05;5.63;;;1.50;;
41709;SDS011;59402;48.396;-4.472;2022-09-21T13:13:38;4.10;;;1.50;;
41709;SDS011;59402;48.396;-4.472;2022-09-21T13:16:25;4.38;;;1.58;;
41709;SDS011;59402;48.396;-4.472;2022-09-21T13:18:59;6.80;;;1.70;;
41709;SDS011;59402;48.396;-4.472;2022-09-21T13:21:25;9.30;;;1.35;;
41709;SDS011;59402;48.396;-4.472;2022-09-21T13:24:03;5.47;;;1.42;;
41709;SDS011;59402;48.396;-4.472;2022-09-21T13:29:24;2.95;;;1.10;;
41709;SDS011;59402;48.396;-4.472;2022-09-21T13:34:29;3.03;;;1.30;;
41709;SDS011;59402;48.396;-4.472;2022-09-21T13:44:53;4.63;;;1.10;;
41709;SDS011;59402;48.396;-4.472;2022-09-21T13:47:32;2.97;;;0.90;;
41709;SDS011;59402;48.396;-4.472;2022-09-21T13:52:50;3.03;;;1.00;;
41709;SDS011;59402;48.396;-4.472;2022-09-21T13:57:59;4.70;;;1.30;;
41709;SDS011;59402;48.396;-4.472;2022-09-21T14:00:35;4.93;;;1.35;;
41709;SDS011;59402;48.396;-4.472;2022-09-21T14:05:45;3.42;;;0.98;;
41709;SDS011;59402;48.396;-4.472;2022-09-21T14:11:02;3.13;;;1.20;;
41709;SDS011;59402;48.396;-4.472;2022-09-21T14:13:38;4.10;;;1.00;;
41709;SDS011;59402;48.396;-4.472;2022-09-21T14:19:00;5.47;;;1.15;;
41709;SDS011;59402;48.396;-4.472;2022-09-21T14:24:33;3.67;;;1.25;;
41709;SDS011;59402;48.396;-4.472;2022-09-21T14:29:42;5.88;;;1.25;;
41709;SDS011;59402;48.396;-4.472;2022-09-21T14:32:16;3.55;;;1.20;;
41709;SDS011;59402;48.396;-4.472;2022-09-21T14:34:45;3.00;;;1.10;;
41709;SDS011;59402;48.396;-4.472;2022-09-21T14:37:35;5.25;;;1.27;;
41709;SDS011;59402;48.396;-4.472;2022-09-21T14:40:03;3.78;;;1.10;;
41709;SDS011;59402;48.396;-4.472;2022-09-21T14:42:40;3.80;;;1.08;;
41709;SDS011;59402;48.396;-4.472;2022-09-21T14:45:09;2.77;;;0.97;;
41709;SDS011;59402;48.396;-4.472;2022-09-21T14:52:54;5.75;;;1.50;;
41709;SDS011;59402;48.396;-4.472;2022-09-21T15:00:42;4.28;;;1.48;;
41709;SDS011;59402;48.396;-4.472;2022-09-21T15:05:54;5.32;;;1.73;;
41709;SDS011;59402;48.396;-4.472;2022-09-21T15:11:12;5.00;;;1.27;;
41709;SDS011;59402;48.396;-4.472;2022-09-21T15:21:42;3.45;;;1.23;;
41709;SDS011;59402;48.396;-4.472;2022-09-21T15:24:24;3.45;;;1.08;;
41709;SDS011;59402;48.396;-4.472;2022-09-21T15:27:05;2.42;;;0.85;;
41709;SDS011;59402;48.396;-4.472;2022-09-21T15:29:34;5.13;;;1.10;;
41709;SDS011;59402;48.396;-4.472;2022-09-21T15:32:01;5.18;;;1.30;;
41709;SDS011;59402;48.396;-4.472;2022-09-21T15:34:28;4.25;;;1.17;;
41709;SDS011;59402;48.396;-4.472;2022-09-21T15:37:03;5.18;;;1.20;;
41709;SDS011;59402;48.396;-4.472;2022-09-21T15:39:30;2.67;;;1.23;;
41709;SDS011;59402;48.396;-4.472;2022-09-21T15:44:34;3.72;;;1.17;;
41709;SDS011;59402;48.396;-4.472;2022-09-21T15:47:02;9.70;;;1.25;;
41709;SDS011;59402;48.396;-4.472;2022-09-21T15:49:32;7.80;;;1.45;;
41709;SDS011;59402;48.396;-4.472;2022-09-21T15:54:34;7.95;;;1.60;;
41709;SDS011;59402;48.396;-4.472;2022-09-21T15:57:05;3.70;;;1.20;;
41709;SDS011;59402;48.396;-4.472;2022-09-21T15:59:51;6.88;;;1.17;;
41709;SDS011;59402;48.396;-4.472;2022-09-21T16:02:20;3.85;;;1.02;;
41709;SDS011;59402;48.396;-4.472;2022-09-21T16:04:47;5.40;;;1.08;;
41709;SDS011;59402;48.396;-4.472;2022-09-21T16:07:32;6.35;;;1.42;;
41709;SDS011;59402;48.396;-4.472;2022-09-21T16:10:00;8.32;;;1.70;;
41709;SDS011;59402;48.396;-4.472;2022-09-21T16:12:37;5.80;;;1.40;;
41709;SDS011;59402;48.396;-4.472;2022-09-21T16:15:06;9.32;;;2.13;;
41709;SDS011;59402;48.396;-4.472;2022-09-21T16:17:36;5.32;;;1.42;;
41709;SDS011;59402;48.396;-4.472;2022-09-21T16:20:13;4.57;;;1.80;;
41709;SDS011;59402;48.396;-4.472;2022-09-21T16:22:42;6.80;;;1.35;;
41709;SDS011;59402;48.396;-4.472;2022-09-21T16:25:22;7.88;;;2.15;;
41709;SDS011;59402;48.396;-4.472;2022-09-21T16:27:56;6.20;;;2.25;;
41709;SDS011;59402;48.396;-4.472;2022-09-21T16:30:39;5.30;;;2.00;;
41709;SDS011;59402;48.396;-4.472;2022-09-21T16:38:46;7.85;;;2.08;;
41709;SDS011;59402;48.396;-4.472;2022-09-21T16:41:14;4.60;;;2.28;;
41709;SDS011;59402;48.396;-4.472;2022-09-21T16:43:40;17.83;;;3.00;;
41709;SDS011;59402;48.396;-4.472;2022-09-21T16:46:08;20.23;;;3.25;;
41709;SDS011;59402;48.396;-4.472;2022-09-21T16:48:34;53.27;;;4.47;;
41709;SDS011;59402;48.396;-4.472;2022-09-21T16:50:59;25.52;;;3.08;;
41709;SDS011;59402;48.396;-4.472;2022-09-21T16:53:25;10.63;;;2.92;;
41709;SDS011;59402;48.396;-4.472;2022-09-21T16:55:51;11.68;;;2.63;;
41709;SDS011;59402;48.396;-4.472;2022-09-21T16:58:18;17.02;;;3.28;;
41709;SDS011;59402;48.396;-4.472;2022-09-21T17:00:50;20.40;;;3.90;;
41709;SDS011;59402;48.396;-4.472;2022-09-21T17:03:17;13.63;;;2.97;;
41709;SDS011;59402;48.396;-4.472;2022-09-21T17:05:43;8.90;;;3.05;;
41709;SDS011;59402;48.396;-4.472;2022-09-21T17:08:09;23.90;;;3.40;;
41709;SDS011;59402;48.396;-4.472;2022-09-21T17:10:36;6.38;;;3.33;;
41709;SDS011;59402;48.396;-4.472;2022-09-21T17:13:04;14.68;;;3.85;;
41709;SDS011;59402;48.396;-4.472;2022-09-21T17:15:33;12.05;;;2.90;;
41709;SDS011;59402;48.396;-4.472;2022-09-21T17:18:00;12.52;;;3.28;;
41709;SDS011;59402;48.396;-4.472;2022-09-21T17:20:34;12.23;;;4.35;;
41709;SDS011;59402;48.396;-4.472;2022-09-21T17:23:01;9.77;;;3.63;;
41709;SDS011;59402;48.396;-4.472;2022-09-21T17:25:28;11.02;;;6.15;;
41709;SDS011;59402;48.396;-4.472;2022-09-21T17:27:54;17.88;;;11.82;;
41709;SDS011;59402;48.396;-4.472;2022-09-21T17:30:24;17.23;;;12.55;;
41709;SDS011;59402;48.396;-4.472;2022-09-21T17:32:50;7.32;;;3.95;;
41709;SDS011;59402;48.396;-4.472;2022-09-21T17:35:18;26.00;;;13.82;;
41709;SDS011;59402;48.396;-4.472;2022-09-21T17:37:54;8.55;;;4.68;;
41709;SDS011;59402;48.396;-4.472;2022-09-21T17:40:20;9.10;;;4.03;;
41709;SDS011;59402;48.396;-4.472;2022-09-21T17:48:06;9.68;;;5.15;;
41709;SDS011;59402;48.396;-4.472;2022-09-21T17:50:41;8.18;;;3.67;;
41709;SDS011;59402;48.396;-4.472;2022-09-21T17:53:07;6.90;;;3.88;;
41709;SDS011;59402;48.396;-4.472;2022-09-21T17:55:53;11.23;;;4.28;;
41709;SDS011;59402;48.396;-4.472;2022-09-21T17:58:30;8.27;;;4.03;;
41709;SDS011;59402;48.396;-4.472;2022-09-21T18:04:00;7.25;;;3.83;;
41709;SDS011;59402;48.396;-4.472;2022-09-21T18:06:26;10.23;;;3.67;;
41709;SDS011;59402;48.396;-4.472;2022-09-21T18:08:53;9.32;;;4.40;;
41709;SDS011;59402;48.396;-4.472;2022-09-21T18:11:31;13.18;;;5.07;;
41709;SDS011;59402;48.396;-4.472;2022-09-21T18:14:15;9.25;;;4.55;;
41709;SDS011;59402;48.396;-4.472;2022-09-21T18:25:36;13.93;;;5.78;;
41709;SDS011;59402;48.396;-4.472;2022-09-21T18:28:14;10.88;;;5.97;;
41709;SDS011;59402;48.396;-4.472;2022-09-21T18:33:42;26.17;;;6.30;;
41709;SDS011;59402;48.396;-4.472;2022-09-21T18:36:26;12.18;;;5.85;;